Durban Star — C6RO6 — position and weather

sailwx.info

Track history (hours):
 
Tides and Currents Weather Stations Pressure Air Temp Water Temp Dewpoint Dewpoint Depression Visibility Wind Speed Wind Dir Waves Ship Positions

Durban Star

Last reported at 2017-Nov-27 14:56 UTC. Time now 2017-Dec-18 08:52 UTC.
Position S 33°54' E 018°26'.
Warning: this ship's position is 20 days out of date.

Length 150 m; draft 7.3 m.

Type: Cargo ship. MMSI: 311126000.

Date/timePositionNaut miles runAvg speedWind from/ knotsBaromVisibWave heightAir tempDewpointWater temp
2017-Nov-27 14:56S 33°54' E 018°26'0 0.0
2017-Nov-27 14:29S 33°54' E 018°26'0 0.0
2017-Nov-27 13:59S 33°54' E 018°26'0 0.0
2017-Nov-27 13:29S 33°54' E 018°26'0 0.0
2017-Nov-27 12:59S 33°54' E 018°26'0 0.0
2017-Nov-27 12:29S 33°54' E 018°26'0 0.0
2017-Nov-27 11:59S 33°54' E 018°26'0 0.0
2017-Nov-27 11:29S 33°54' E 018°26'0 0.0
2017-Nov-27 10:59S 33°54' E 018°26'0 0.0
2017-Nov-27 10:29S 33°54' E 018°26'0 0.0
2017-Nov-27 09:56S 33°54' E 018°26'0 0.0
2017-Nov-27 09:29S 33°54' E 018°26'0 0.0
2017-Nov-27 08:56S 33°54' E 018°26'0 0.4
2017-Nov-27 08:30S 33°54' E 018°26'3 5.1
2017-Nov-27 08:00S 33°52' E 018°24'5 9.0
2017-Nov-27 07:30S 33°52' E 018°19'6 7.5
2017-Nov-27 06:40S 33°48' E 018°12'0 0.7
2017-Nov-27 06:27S 33°48' E 018°13'0 0.9
2017-Nov-27 05:59S 33°49' E 018°12'0 0.7
2017-Nov-27 05:25S 33°49' E 018°12'0 0.6
2017-Nov-27 05:00S 33°49' E 018°12'0 0.9
2017-Nov-27 04:30S 33°50' E 018°12'1 1.0
2017-Nov-27 04:00S 33°50' E 018°12'1 1.0
2017-Nov-27 03:20S 33°51' E 018°12'0 1.0
2017-Nov-27 03:00S 33°51' E 018°13'1 1.4
2017-Nov-27 02:30S 33°52' E 018°13'0 0.9
2017-Nov-27 01:58S 33°52' E 018°14'3 0.7
2017-Nov-26 21:03S 33°51' E 018°10'0 1.9
2017-Nov-26 20:51S 33°51' E 018°10'1 1.9
2017-Nov-26 20:15S 33°52' E 018°11'3 0.7
2017-Nov-26 16:14S 33°49' E 018°13'1 2.2
2017-Nov-26 15:59S 33°50' E 018°13'1 2.1
2017-Nov-26 15:19S 33°51' E 018°14'1 2.1
2017-Nov-26 14:58S 33°52' E 018°14'1 2.6
2017-Nov-26 14:27S 33°53' E 018°15'4 7.6
2017-Nov-26 13:59S 33°52' E 018°19'4 9.1
2017-Nov-26 13:30S 33°51' E 018°25'2 3.2
2017-Nov-26 13:00S 33°51' E 018°26'0 0.2
2017-Nov-26 12:26S 33°51' E 018°26'0 0.2
2017-Nov-26 11:56S 33°51' E 018°26'0 0.1
2017-Nov-26 11:26S 33°51' E 018°26'0 0.1
2017-Nov-26 10:59S 33°51' E 018°26'0 0.0
2017-Nov-26 10:29S 33°51' E 018°26'0 0.0
2017-Nov-26 09:59S 33°51' E 018°26'0 0.1
2017-Nov-26 09:29S 33°51' E 018°26'0 0.0
2017-Nov-26 08:59S 33°51' E 018°26'0 0.1
2017-Nov-26 08:29S 33°51' E 018°26'0 0.0
2017-Nov-26 07:56S 33°51' E 018°26'0 0.0
2017-Nov-26 07:29S 33°51' E 018°26'0 0.1
2017-Nov-26 06:59S 33°51' E 018°26'0 0.1
2017-Nov-26 06:29S 33°51' E 018°26'0 0.0
2017-Nov-26 05:59S 33°51' E 018°26'0 0.1
2017-Nov-26 05:29S 33°51' E 018°26'0 0.0
2017-Nov-26 04:59S 33°51' E 018°26'0 0.0
2017-Nov-26 04:29S 33°51' E 018°26'0 0.0
2017-Nov-26 03:53S 33°51' E 018°26'0 0.0
2017-Nov-26 03:29S 33°51' E 018°26'0 0.0
2017-Nov-26 02:53S 33°51' E 018°26'0 0.0
2017-Nov-26 02:26S 33°51' E 018°26'0 0.1
2017-Nov-26 01:59S 33°51' E 018°26'0 0.1
2017-Nov-26 01:29S 33°51' E 018°27'0 0.1
2017-Nov-26 00:59S 33°51' E 018°26'0 0.0
2017-Nov-26 00:29S 33°51' E 018°26'0 0.1
2017-Nov-25 23:59S 33°51' E 018°26'0 0.0
2017-Nov-25 23:29S 33°51' E 018°26'0 0.0
2017-Nov-25 22:59S 33°51' E 018°26'0 0.2
2017-Nov-25 22:29S 33°51' E 018°26'0 0.0
2017-Nov-25 21:59S 33°51' E 018°26'0 0.0
2017-Nov-25 21:29S 33°51' E 018°26'0 0.0
2017-Nov-25 20:59S 33°51' E 018°26'0 0.1
2017-Nov-25 20:26S 33°51' E 018°26'0 0.1
2017-Nov-25 19:59S 33°51' E 018°26'0 0.0
2017-Nov-25 19:20S 33°51' E 018°26'0 0.2
2017-Nov-25 18:59S 33°51' E 018°26'0 0.1
2017-Nov-25 18:29S 33°51' E 018°26'0 0.0
2017-Nov-25 17:59S 33°51' E 018°26'0 0.0
2017-Nov-25 17:26S 33°51' E 018°26'0 0.0
2017-Nov-25 16:56S 33°51' E 018°26'0 0.1
2017-Nov-25 16:29S 33°51' E 018°26'0 0.1
2017-Nov-25 15:59S 33°51' E 018°26'0 0.1
2017-Nov-25 15:26S 33°51' E 018°26'0 0.1
2017-Nov-25 14:59S 33°51' E 018°26'0 0.2
2017-Nov-25 14:29S 33°51' E 018°26'0 0.1
2017-Nov-25 13:56S 33°51' E 018°26'0 0.1
2017-Nov-25 13:29S 33°51' E 018°26'0 0.0
2017-Nov-25 12:59S 33°51' E 018°26'0 0.0
2017-Nov-25 12:26S 33°51' E 018°26'0 0.2
2017-Nov-25 11:59S 33°51' E 018°26'0 0.0
2017-Nov-25 11:29S 33°51' E 018°27'0 0.1
2017-Nov-25 10:59S 33°51' E 018°27'0 0.0
2017-Nov-25 10:29S 33°51' E 018°27'0 0.1
2017-Nov-25 09:59S 33°51' E 018°27'0 0.0
2017-Nov-25 09:26S 33°51' E 018°27'0 0.0
2017-Nov-25 08:59S 33°51' E 018°26'0 0.0
2017-Nov-25 08:29S 33°51' E 018°26'0 0.0
2017-Nov-25 07:59S 33°51' E 018°26'0 0.1
2017-Nov-25 07:23S 33°52' E 018°26'0 0.1
2017-Nov-25 06:59S 33°52' E 018°26'0 0.1
2017-Nov-25 06:26S 33°51' E 018°26'0 0.0
2017-Nov-25 05:59S 33°51' E 018°26'0 0.0
2017-Nov-25 05:29S 33°51' E 018°26'0 0.0
2017-Nov-25 04:59S 33°51' E 018°26'0 0.0
2017-Nov-25 04:26S 33°51' E 018°26'0 0.0
2017-Nov-25 03:59S 33°51' E 018°26'0 0.1
2017-Nov-25 03:29S 33°51' E 018°26'0 0.0
2017-Nov-25 02:59S 33°51' E 018°26'0 0.1
2017-Nov-25 02:29S 33°51' E 018°26'0 0.1
2017-Nov-25 01:59S 33°51' E 018°26'0 0.1
2017-Nov-25 01:29S 33°51' E 018°26'0 0.1
2017-Nov-25 00:56S 33°51' E 018°26'0 0.1
2017-Nov-25 00:29S 33°51' E 018°26'0 0.0
2017-Nov-24 23:59S 33°51' E 018°26'0 0.0
2017-Nov-24 23:29S 33°51' E 018°26'0 0.0
2017-Nov-24 22:53S 33°51' E 018°26'0 0.1
2017-Nov-24 22:28S 33°51' E 018°26'0 0.0
2017-Nov-24 21:55S 33°51' E 018°26'0 0.0
2017-Nov-24 21:25S 33°51' E 018°26'0 0.0
2017-Nov-24 20:55S 33°51' E 018°26'0 0.1
2017-Nov-24 20:25S 33°51' E 018°26'0 0.0
2017-Nov-24 19:58S 33°51' E 018°26'0 0.2
2017-Nov-24 19:25S 33°51' E 018°26'0 0.0
2017-Nov-24 18:58S 33°51' E 018°26'0 0.1
2017-Nov-24 18:25S 33°51' E 018°26'0 0.1
2017-Nov-24 17:55S 33°51' E 018°26'0 0.1
2017-Nov-24 17:28S 33°51' E 018°26'0 0.1
2017-Nov-24 16:52S 33°51' E 018°26'0 0.0
2017-Nov-24 16:25S 33°51' E 018°26'0 0.0
2017-Nov-24 15:58S 33°51' E 018°26'0 0.1
2017-Nov-24 15:28S 33°51' E 018°26'0 0.0
2017-Nov-24 14:58S 33°51' E 018°26'0 0.0
2017-Nov-24 14:25S 33°52' E 018°26'0 0.0
2017-Nov-24 13:58S 33°52' E 018°26'0 0.1
2017-Nov-24 13:10S 33°52' E 018°27'0 0.0
2017-Nov-24 12:58S 33°52' E 018°27'0 0.0
2017-Nov-24 12:28S 33°52' E 018°27'0 0.1
2017-Nov-24 11:58S 33°52' E 018°26'0 0.1
2017-Nov-24 11:22S 33°52' E 018°27'0 0.0
2017-Nov-24 10:55S 33°52' E 018°26'0 0.0
2017-Nov-24 10:25S 33°52' E 018°26'0 0.1
2017-Nov-24 09:58S 33°52' E 018°27'0 0.0
2017-Nov-24 09:19S 33°52' E 018°27'0 0.0
2017-Nov-24 08:46S 33°52' E 018°27'0 0.0
2017-Nov-24 08:28S 33°52' E 018°27'0 0.0
2017-Nov-24 07:52S 33°52' E 018°26'0 0.0
2017-Nov-24 07:25S 33°52' E 018°27'0 0.1
2017-Nov-24 06:55S 33°52' E 018°27'0 0.1
2017-Nov-24 06:25S 33°52' E 018°27'0 0.1
2017-Nov-24 05:55S 33°52' E 018°27'0 0.0
2017-Nov-24 05:28S 33°52' E 018°27'0 0.0
2017-Nov-24 04:58S 33°52' E 018°27'0 0.0
2017-Nov-24 04:28S 33°52' E 018°27'0 0.0
2017-Nov-24 03:58S 33°52' E 018°27'0 0.0
2017-Nov-24 03:28S 33°52' E 018°27'0 0.0
2017-Nov-24 02:55S 33°52' E 018°27'0 0.0
2017-Nov-24 02:25S 33°52' E 018°27'0 0.0
2017-Nov-24 01:58S 33°52' E 018°27'0 0.1
2017-Nov-24 01:28S 33°52' E 018°27'0 0.0
2017-Nov-24 00:58S 33°52' E 018°27'0 0.0
2017-Nov-24 00:28S 33°52' E 018°27'0 0.0
2017-Nov-23 23:55S 33°52' E 018°27'0 0.1
2017-Nov-23 23:28S 33°52' E 018°27'0 0.0
2017-Nov-23 22:58S 33°52' E 018°27'0 0.0
2017-Nov-23 22:28S 33°52' E 018°27'0 0.0
2017-Nov-23 21:58S 33°52' E 018°27'0 0.0
2017-Nov-23 21:25S 33°52' E 018°27'0 0.1
2017-Nov-23 20:55S 33°52' E 018°27'0 0.0
2017-Nov-23 20:28S 33°52' E 018°27'0 0.1
2017-Nov-23 19:58S 33°52' E 018°27'0 0.0
2017-Nov-23 19:28S 33°52' E 018°27'0 0.0
2017-Nov-23 18:58S 33°52' E 018°27'0 0.0
2017-Nov-23 18:28S 33°52' E 018°27'0 0.1
2017-Nov-23 17:58S 33°52' E 018°27'0 0.0
2017-Nov-23 17:28S 33°52' E 018°27'0 0.1
2017-Nov-23 16:58S 33°52' E 018°27'0 0.0
2017-Nov-23 16:28S 33°52' E 018°27'0 0.0
2017-Nov-23 15:58S 33°52' E 018°27'0 0.1
2017-Nov-23 15:25S 33°52' E 018°27'0 0.0
2017-Nov-23 14:55S 33°52' E 018°27'0 0.1
2017-Nov-23 14:25S 33°52' E 018°27'0 0.1
2017-Nov-23 13:55S 33°52' E 018°27'0 0.0
2017-Nov-23 13:22S 33°52' E 018°27'0 0.0
2017-Nov-23 12:58S 33°52' E 018°27'0 0.1
2017-Nov-23 12:28S 33°52' E 018°27'0 0.1
2017-Nov-23 11:58S 33°52' E 018°27'0 0.0
2017-Nov-23 11:25S 33°52' E 018°27'0 0.0
2017-Nov-23 10:58S 33°52' E 018°27'0 0.1
2017-Nov-23 10:28S 33°52' E 018°27'0 0.1
2017-Nov-23 09:55S 33°52' E 018°27'0 0.0
2017-Nov-23 09:28S 33°52' E 018°27'0 0.0
2017-Nov-23 08:58S 33°52' E 018°27'0 0.0
2017-Nov-23 08:25S 33°52' E 018°27'0 0.0
2017-Nov-23 07:58S 33°52' E 018°27'0 0.0
2017-Nov-23 07:28S 33°52' E 018°27'0 0.0
2017-Nov-23 06:58S 33°52' E 018°27'0 0.1
2017-Nov-23 06:25S 33°52' E 018°27'0 0.1
2017-Nov-23 05:58S 33°52' E 018°27'0 0.0
2017-Nov-23 05:25S 33°52' E 018°27'0 0.0
2017-Nov-23 04:55S 33°52' E 018°27'0 0.1
2017-Nov-23 04:28S 33°52' E 018°27'0 0.0
2017-Nov-23 03:55S 33°52' E 018°27'0 0.0
2017-Nov-23 03:28S 33°52' E 018°27'0 0.1
2017-Nov-23 02:58S 33°52' E 018°27'0 0.0
2017-Nov-23 02:28S 33°52' E 018°27'0 0.0
2017-Nov-23 01:55S 33°52' E 018°27'0 0.0
2017-Nov-23 01:28S 33°52' E 018°27'0 0.0
2017-Nov-23 00:55S 33°52' E 018°27'0 0.0
2017-Nov-23 00:28S 33°52' E 018°27'0 0.1
2017-Nov-22 23:58S 33°52' E 018°27'0 0.0
2017-Nov-22 23:28S 33°52' E 018°27'0 0.0
2017-Nov-22 22:58S 33°52' E 018°27'0 0.0
2017-Nov-22 22:25S 33°52' E 018°27'0 0.1
2017-Nov-22 21:58S 33°52' E 018°27'0 0.0
2017-Nov-22 21:28S 33°52' E 018°27'0 0.0
2017-Nov-22 20:58S 33°52' E 018°27'0 0.0
2017-Nov-22 20:28S 33°52' E 018°27'0 0.0
2017-Nov-22 19:58S 33°52' E 018°27'0 0.1
2017-Nov-22 19:19S 33°52' E 018°27'  
2017-Nov-20 00:30S 33°52' E 018°27'0 0.0
2017-Nov-20 00:00S 33°52' E 018°27'0 0.0
2017-Nov-19 23:27S 33°52' E 018°27'0 0.0
2017-Nov-19 23:00S 33°52' E 018°27'0 0.0
2017-Nov-19 22:30S 33°52' E 018°27'0 0.0
2017-Nov-19 21:57S 33°52' E 018°27'0 0.0
2017-Nov-19 21:30S 33°52' E 018°27'0 0.0
2017-Nov-19 20:54S 33°52' E 018°27'0 0.0
2017-Nov-19 20:30S 33°52' E 018°27'0 0.1
2017-Nov-19 20:00S 33°52' E 018°27'0 0.0
2017-Nov-19 19:30S 33°52' E 018°27'0 0.0
2017-Nov-19 19:00S 33°52' E 018°27'0 0.0
2017-Nov-19 18:30S 33°52' E 018°27'0 0.0
2017-Nov-19 17:57S 33°52' E 018°27'0 0.0
2017-Nov-19 17:30S 33°52' E 018°27'0 0.0
2017-Nov-19 17:00S 33°52' E 018°27'0 0.0
2017-Nov-19 16:30S 33°52' E 018°27'0 0.0
2017-Nov-19 15:54S 33°52' E 018°27'0 0.1
2017-Nov-19 15:30S 33°52' E 018°27'0 0.1
2017-Nov-19 15:00S 33°52' E 018°27'0 0.0
2017-Nov-19 14:30S 33°52' E 018°27'0 0.1
2017-Nov-19 14:00S 33°52' E 018°27'0 0.1
2017-Nov-19 13:30S 33°52' E 018°27'0 0.0
2017-Nov-19 13:00S 33°52' E 018°27'0 0.1
2017-Nov-19 12:30S 33°52' E 018°27'0 0.0
2017-Nov-19 11:57S 33°52' E 018°27'0 0.0
2017-Nov-19 11:27S 33°52' E 018°27'0 0.1
2017-Nov-19 11:00S 33°52' E 018°27'0 0.1
2017-Nov-19 10:30S 33°52' E 018°27'0 0.0
2017-Nov-19 10:00S 33°52' E 018°27'0 0.0
2017-Nov-19 09:30S 33°52' E 018°27'0 0.0
2017-Nov-19 08:54S 33°52' E 018°27'0 0.0
2017-Nov-19 08:30S 33°52' E 018°27'0 0.0
2017-Nov-19 07:54S 33°52' E 018°27'0 0.0
2017-Nov-19 07:30S 33°52' E 018°27'0 0.0
2017-Nov-19 07:00S 33°52' E 018°27'0 0.0
2017-Nov-19 06:30S 33°52' E 018°27'0 0.0
2017-Nov-19 06:00S 33°52' E 018°27'0 0.0
2017-Nov-19 05:30S 33°52' E 018°27'0 0.0
2017-Nov-19 05:00S 33°52' E 018°27'0 0.0
2017-Nov-19 04:24S 33°52' E 018°27'0 0.0
2017-Nov-19 04:00S 33°52' E 018°27'0 0.0
2017-Nov-19 03:30S 33°52' E 018°27'0 0.0
2017-Nov-19 03:00S 33°52' E 018°27'0 0.0
2017-Nov-19 02:30S 33°52' E 018°27'0 0.0
2017-Nov-19 02:00S 33°52' E 018°27'0 0.0
2017-Nov-19 01:30S 33°52' E 018°27'0 0.0
2017-Nov-19 01:00S 33°52' E 018°27'0 0.0
2017-Nov-19 00:30S 33°52' E 018°27'0 0.0
2017-Nov-19 00:00S 33°52' E 018°27'0 0.0
2017-Nov-18 23:30S 33°52' E 018°27'0 0.0
2017-Nov-18 23:00S 33°52' E 018°27'0 0.0
2017-Nov-18 22:30S 33°52' E 018°27'0 0.0
2017-Nov-18 22:00S 33°52' E 018°27'0 0.0
2017-Nov-18 21:27S 33°52' E 018°27'0 0.0
2017-Nov-18 21:00S 33°52' E 018°27'0 0.0
2017-Nov-18 20:27S 33°52' E 018°27'0 0.0
2017-Nov-18 20:00S 33°52' E 018°27'0 0.0
2017-Nov-18 19:30S 33°52' E 018°27'0 0.0
2017-Nov-18 19:00S 33°52' E 018°27'0 0.0
2017-Nov-18 18:30S 33°52' E 018°27'0 0.0
2017-Nov-18 18:00S 33°52' E 018°27'0 0.0
2017-Nov-18 17:30S 33°52' E 018°27'0 0.0
2017-Nov-18 16:57S 33°52' E 018°27'0 0.0
2017-Nov-18 16:30S 33°52' E 018°27'0 0.0
2017-Nov-18 15:51S 33°52' E 018°27'0 0.0
2017-Nov-18 15:30S 33°52' E 018°27'0 0.0
2017-Nov-18 15:00S 33°52' E 018°27'0 0.1
2017-Nov-18 14:27S 33°52' E 018°27'0 0.1
2017-Nov-18 14:00S 33°52' E 018°27'0 0.0
2017-Nov-18 13:30S 33°52' E 018°27'0 0.0
2017-Nov-18 13:00S 33°52' E 018°27'0 0.0
2017-Nov-18 12:30S 33°52' E 018°27'0 0.0
2017-Nov-18 11:57S 33°52' E 018°27'0 0.0
2017-Nov-18 11:30S 33°52' E 018°27'0 0.0
2017-Nov-18 11:00S 33°52' E 018°27'0 0.0
2017-Nov-18 10:30S 33°52' E 018°27'0 0.0
2017-Nov-18 10:00S 33°52' E 018°27'0 0.0
2017-Nov-18 09:21S 33°52' E 018°27'0 0.0
2017-Nov-18 09:00S 33°52' E 018°27'0 0.1
2017-Nov-18 08:27S 33°52' E 018°27'0 0.1
2017-Nov-18 08:00S 33°52' E 018°27'0 0.0
2017-Nov-18 07:30S 33°52' E 018°27'0 0.0
2017-Nov-18 07:00S 33°52' E 018°27'0 0.0
2017-Nov-18 06:30S 33°52' E 018°27'0 0.0
2017-Nov-18 05:54S 33°52' E 018°27'0 0.1
2017-Nov-18 05:30S 33°52' E 018°27'0 0.0
2017-Nov-18 05:00S 33°52' E 018°27'0 0.0
2017-Nov-18 04:30S 33°52' E 018°27'0 0.0
2017-Nov-18 03:59S 33°52' E 018°27'0 0.0
2017-Nov-18 03:29S 33°52' E 018°27'0 0.0
2017-Nov-18 02:59S 33°52' E 018°27'0 0.0
2017-Nov-18 02:29S 33°52' E 018°27'0 0.1
2017-Nov-18 01:59S 33°52' E 018°27'0 0.1
2017-Nov-18 01:26S 33°52' E 018°27'0 0.1
2017-Nov-18 00:59S 33°52' E 018°27'0 0.1
2017-Nov-18 00:11S 33°52' E 018°26'0 0.1
2017-Nov-17 23:59S 33°52' E 018°27'0 0.2
2017-Nov-17 23:26S 33°52' E 018°27'0 0.2
2017-Nov-17 22:59S 33°52' E 018°27'0 0.2
2017-Nov-17 22:26S 33°52' E 018°27'0 0.0
2017-Nov-17 21:53S 33°52' E 018°27'0 0.1
2017-Nov-17 21:29S 33°52' E 018°27'0 0.1
2017-Nov-17 20:59S 33°52' E 018°27'0 0.0
2017-Nov-17 20:29S 33°52' E 018°27'0 0.0
2017-Nov-17 19:59S 33°52' E 018°27'0 0.1
2017-Nov-17 19:29S 33°52' E 018°27'0 0.1
2017-Nov-17 18:53S 33°52' E 018°27'0 0.0
2017-Nov-17 18:29S 33°52' E 018°27'0 0.0
2017-Nov-17 17:59S 33°52' E 018°27'0 0.0
2017-Nov-17 17:29S 33°52' E 018°27'0 0.1
2017-Nov-17 16:59S 33°52' E 018°27'0 0.0
2017-Nov-17 16:23S 33°52' E 018°27'0 0.0
2017-Nov-17 15:59S 33°52' E 018°27'0 0.1
2017-Nov-17 15:29S 33°52' E 018°27'0 0.1
2017-Nov-17 14:59S 33°52' E 018°27'  
Track history (hours):
 
Tides and Currents Weather Stations Pressure Air Temp Water Temp Dewpoint Dewpoint Depression Visibility Wind Speed Wind Dir Waves Ship Positions

Durban Star

Last reported at 2017-Nov-27 14:56 UTC. Time now 2017-Dec-18 08:52 UTC.
Position S 33°54' E 018°26'.
Warning: this ship's position is 20 days out of date.

Length 150 m; draft 7.3 m.

Type: Cargo ship. MMSI: 311126000.

Date/timePositionNaut miles runAvg speedWind from/ knotsBaromVisibWave heightAir tempDewpointWater temp
2017-Nov-27 14:56S 33°54' E 018°26'0 0.0
2017-Nov-27 14:29S 33°54' E 018°26'0 0.0
2017-Nov-27 13:59S 33°54' E 018°26'0 0.0
2017-Nov-27 13:29S 33°54' E 018°26'0 0.0
2017-Nov-27 12:59S 33°54' E 018°26'0 0.0
2017-Nov-27 12:29S 33°54' E 018°26'0 0.0
2017-Nov-27 11:59S 33°54' E 018°26'0 0.0
2017-Nov-27 11:29S 33°54' E 018°26'0 0.0
2017-Nov-27 10:59S 33°54' E 018°26'0 0.0
2017-Nov-27 10:29S 33°54' E 018°26'0 0.0
2017-Nov-27 09:56S 33°54' E 018°26'0 0.0
2017-Nov-27 09:29S 33°54' E 018°26'0 0.0
2017-Nov-27 08:56S 33°54' E 018°26'0 0.4
2017-Nov-27 08:30S 33°54' E 018°26'3 5.1
2017-Nov-27 08:00S 33°52' E 018°24'5 9.0
2017-Nov-27 07:30S 33°52' E 018°19'6 7.5
2017-Nov-27 06:40S 33°48' E 018°12'0 0.7
2017-Nov-27 06:27S 33°48' E 018°13'0 0.9
2017-Nov-27 05:59S 33°49' E 018°12'0 0.7
2017-Nov-27 05:25S 33°49' E 018°12'0 0.6
2017-Nov-27 05:00S 33°49' E 018°12'0 0.9
2017-Nov-27 04:30S 33°50' E 018°12'1 1.0
2017-Nov-27 04:00S 33°50' E 018°12'1 1.0
2017-Nov-27 03:20S 33°51' E 018°12'0 1.0
2017-Nov-27 03:00S 33°51' E 018°13'1 1.4
2017-Nov-27 02:30S 33°52' E 018°13'0 0.9
2017-Nov-27 01:58S 33°52' E 018°14'3 0.7
2017-Nov-26 21:03S 33°51' E 018°10'0 1.9
2017-Nov-26 20:51S 33°51' E 018°10'1 1.9
2017-Nov-26 20:15S 33°52' E 018°11'3 0.7
2017-Nov-26 16:14S 33°49' E 018°13'1 2.2
2017-Nov-26 15:59S 33°50' E 018°13'1 2.1
2017-Nov-26 15:19S 33°51' E 018°14'1 2.1
2017-Nov-26 14:58S 33°52' E 018°14'1 2.6
2017-Nov-26 14:27S 33°53' E 018°15'4 7.6
2017-Nov-26 13:59S 33°52' E 018°19'4 9.1
2017-Nov-26 13:30S 33°51' E 018°25'2 3.2
2017-Nov-26 13:00S 33°51' E 018°26'0 0.2
2017-Nov-26 12:26S 33°51' E 018°26'0 0.2
2017-Nov-26 11:56S 33°51' E 018°26'0 0.1
2017-Nov-26 11:26S 33°51' E 018°26'0 0.1
2017-Nov-26 10:59S 33°51' E 018°26'0 0.0
2017-Nov-26 10:29S 33°51' E 018°26'0 0.0
2017-Nov-26 09:59S 33°51' E 018°26'0 0.1
2017-Nov-26 09:29S 33°51' E 018°26'0 0.0
2017-Nov-26 08:59S 33°51' E 018°26'0 0.1
2017-Nov-26 08:29S 33°51' E 018°26'0 0.0
2017-Nov-26 07:56S 33°51' E 018°26'0 0.0
2017-Nov-26 07:29S 33°51' E 018°26'0 0.1
2017-Nov-26 06:59S 33°51' E 018°26'0 0.1
2017-Nov-26 06:29S 33°51' E 018°26'0 0.0
2017-Nov-26 05:59S 33°51' E 018°26'0 0.1
2017-Nov-26 05:29S 33°51' E 018°26'0 0.0
2017-Nov-26 04:59S 33°51' E 018°26'0 0.0
2017-Nov-26 04:29S 33°51' E 018°26'0 0.0
2017-Nov-26 03:53S 33°51' E 018°26'0 0.0
2017-Nov-26 03:29S 33°51' E 018°26'0 0.0
2017-Nov-26 02:53S 33°51' E 018°26'0 0.0
2017-Nov-26 02:26S 33°51' E 018°26'0 0.1
2017-Nov-26 01:59S 33°51' E 018°26'0 0.1
2017-Nov-26 01:29S 33°51' E 018°27'0 0.1
2017-Nov-26 00:59S 33°51' E 018°26'0 0.0
2017-Nov-26 00:29S 33°51' E 018°26'0 0.1
2017-Nov-25 23:59S 33°51' E 018°26'0 0.0
2017-Nov-25 23:29S 33°51' E 018°26'0 0.0
2017-Nov-25 22:59S 33°51' E 018°26'0 0.2
2017-Nov-25 22:29S 33°51' E 018°26'0 0.0
2017-Nov-25 21:59S 33°51' E 018°26'0 0.0
2017-Nov-25 21:29S 33°51' E 018°26'0 0.0
2017-Nov-25 20:59S 33°51' E 018°26'0 0.1
2017-Nov-25 20:26S 33°51' E 018°26'0 0.1
2017-Nov-25 19:59S 33°51' E 018°26'0 0.0
2017-Nov-25 19:20S 33°51' E 018°26'0 0.2
2017-Nov-25 18:59S 33°51' E 018°26'0 0.1
2017-Nov-25 18:29S 33°51' E 018°26'0 0.0
2017-Nov-25 17:59S 33°51' E 018°26'0 0.0
2017-Nov-25 17:26S 33°51' E 018°26'0 0.0
2017-Nov-25 16:56S 33°51' E 018°26'0 0.1
2017-Nov-25 16:29S 33°51' E 018°26'0 0.1
2017-Nov-25 15:59S 33°51' E 018°26'0 0.1
2017-Nov-25 15:26S 33°51' E 018°26'0 0.1
2017-Nov-25 14:59S 33°51' E 018°26'0 0.2
2017-Nov-25 14:29S 33°51' E 018°26'0 0.1
2017-Nov-25 13:56S 33°51' E 018°26'0 0.1
2017-Nov-25 13:29S 33°51' E 018°26'0 0.0
2017-Nov-25 12:59S 33°51' E 018°26'0 0.0
2017-Nov-25 12:26S 33°51' E 018°26'0 0.2
2017-Nov-25 11:59S 33°51' E 018°26'0 0.0
2017-Nov-25 11:29S 33°51' E 018°27'0 0.1
2017-Nov-25 10:59S 33°51' E 018°27'0 0.0
2017-Nov-25 10:29S 33°51' E 018°27'0 0.1
2017-Nov-25 09:59S 33°51' E 018°27'0 0.0
2017-Nov-25 09:26S 33°51' E 018°27'0 0.0
2017-Nov-25 08:59S 33°51' E 018°26'0 0.0
2017-Nov-25 08:29S 33°51' E 018°26'0 0.0
2017-Nov-25 07:59S 33°51' E 018°26'0 0.1
2017-Nov-25 07:23S 33°52' E 018°26'0 0.1
2017-Nov-25 06:59S 33°52' E 018°26'0 0.1
2017-Nov-25 06:26S 33°51' E 018°26'0 0.0
2017-Nov-25 05:59S 33°51' E 018°26'0 0.0
2017-Nov-25 05:29S 33°51' E 018°26'0 0.0
2017-Nov-25 04:59S 33°51' E 018°26'0 0.0
2017-Nov-25 04:26S 33°51' E 018°26'0 0.0
2017-Nov-25 03:59S 33°51' E 018°26'0 0.1
2017-Nov-25 03:29S 33°51' E 018°26'0 0.0
2017-Nov-25 02:59S 33°51' E 018°26'0 0.1
2017-Nov-25 02:29S 33°51' E 018°26'0 0.1
2017-Nov-25 01:59S 33°51' E 018°26'0 0.1
2017-Nov-25 01:29S 33°51' E 018°26'0 0.1
2017-Nov-25 00:56S 33°51' E 018°26'0 0.1
2017-Nov-25 00:29S 33°51' E 018°26'0 0.0
2017-Nov-24 23:59S 33°51' E 018°26'0 0.0
2017-Nov-24 23:29S 33°51' E 018°26'0 0.0
2017-Nov-24 22:53S 33°51' E 018°26'0 0.1
2017-Nov-24 22:28S 33°51' E 018°26'0 0.0
2017-Nov-24 21:55S 33°51' E 018°26'0 0.0
2017-Nov-24 21:25S 33°51' E 018°26'0 0.0
2017-Nov-24 20:55S 33°51' E 018°26'0 0.1
2017-Nov-24 20:25S 33°51' E 018°26'0 0.0
2017-Nov-24 19:58S 33°51' E 018°26'0 0.2
2017-Nov-24 19:25S 33°51' E 018°26'0 0.0
2017-Nov-24 18:58S 33°51' E 018°26'0 0.1
2017-Nov-24 18:25S 33°51' E 018°26'0 0.1
2017-Nov-24 17:55S 33°51' E 018°26'0 0.1
2017-Nov-24 17:28S 33°51' E 018°26'0 0.1
2017-Nov-24 16:52S 33°51' E 018°26'0 0.0
2017-Nov-24 16:25S 33°51' E 018°26'0 0.0
2017-Nov-24 15:58S 33°51' E 018°26'0 0.1
2017-Nov-24 15:28S 33°51' E 018°26'0 0.0
2017-Nov-24 14:58S 33°51' E 018°26'0 0.0
2017-Nov-24 14:25S 33°52' E 018°26'0 0.0
2017-Nov-24 13:58S 33°52' E 018°26'0 0.1
2017-Nov-24 13:10S 33°52' E 018°27'0 0.0
2017-Nov-24 12:58S 33°52' E 018°27'0 0.0
2017-Nov-24 12:28S 33°52' E 018°27'0 0.1
2017-Nov-24 11:58S 33°52' E 018°26'0 0.1
2017-Nov-24 11:22S 33°52' E 018°27'0 0.0
2017-Nov-24 10:55S 33°52' E 018°26'0 0.0
2017-Nov-24 10:25S 33°52' E 018°26'0 0.1
2017-Nov-24 09:58S 33°52' E 018°27'0 0.0
2017-Nov-24 09:19S 33°52' E 018°27'0 0.0
2017-Nov-24 08:46S 33°52' E 018°27'0 0.0
2017-Nov-24 08:28S 33°52' E 018°27'0 0.0
2017-Nov-24 07:52S 33°52' E 018°26'0 0.0
2017-Nov-24 07:25S 33°52' E 018°27'0 0.1
2017-Nov-24 06:55S 33°52' E 018°27'0 0.1
2017-Nov-24 06:25S 33°52' E 018°27'0 0.1
2017-Nov-24 05:55S 33°52' E 018°27'0 0.0
2017-Nov-24 05:28S 33°52' E 018°27'0 0.0
2017-Nov-24 04:58S 33°52' E 018°27'0 0.0
2017-Nov-24 04:28S 33°52' E 018°27'0 0.0
2017-Nov-24 03:58S 33°52' E 018°27'0 0.0
2017-Nov-24 03:28S 33°52' E 018°27'0 0.0
2017-Nov-24 02:55S 33°52' E 018°27'0 0.0
2017-Nov-24 02:25S 33°52' E 018°27'0 0.0
2017-Nov-24 01:58S 33°52' E 018°27'0 0.1
2017-Nov-24 01:28S 33°52' E 018°27'0 0.0
2017-Nov-24 00:58S 33°52' E 018°27'0 0.0
2017-Nov-24 00:28S 33°52' E 018°27'0 0.0
2017-Nov-23 23:55S 33°52' E 018°27'0 0.1
2017-Nov-23 23:28S 33°52' E 018°27'0 0.0
2017-Nov-23 22:58S 33°52' E 018°27'0 0.0
2017-Nov-23 22:28S 33°52' E 018°27'0 0.0
2017-Nov-23 21:58S 33°52' E 018°27'0 0.0
2017-Nov-23 21:25S 33°52' E 018°27'0 0.1
2017-Nov-23 20:55S 33°52' E 018°27'0 0.0
2017-Nov-23 20:28S 33°52' E 018°27'0 0.1
2017-Nov-23 19:58S 33°52' E 018°27'0 0.0
2017-Nov-23 19:28S 33°52' E 018°27'0 0.0
2017-Nov-23 18:58S 33°52' E 018°27'0 0.0
2017-Nov-23 18:28S 33°52' E 018°27'0 0.1
2017-Nov-23 17:58S 33°52' E 018°27'0 0.0
2017-Nov-23 17:28S 33°52' E 018°27'0 0.1
2017-Nov-23 16:58S 33°52' E 018°27'0 0.0
2017-Nov-23 16:28S 33°52' E 018°27'0 0.0
2017-Nov-23 15:58S 33°52' E 018°27'0 0.1
2017-Nov-23 15:25S 33°52' E 018°27'0 0.0
2017-Nov-23 14:55S 33°52' E 018°27'0 0.1
2017-Nov-23 14:25S 33°52' E 018°27'0 0.1
2017-Nov-23 13:55S 33°52' E 018°27'0 0.0
2017-Nov-23 13:22S 33°52' E 018°27'0 0.0
2017-Nov-23 12:58S 33°52' E 018°27'0 0.1
2017-Nov-23 12:28S 33°52' E 018°27'0 0.1
2017-Nov-23 11:58S 33°52' E 018°27'0 0.0
2017-Nov-23 11:25S 33°52' E 018°27'0 0.0
2017-Nov-23 10:58S 33°52' E 018°27'0 0.1
2017-Nov-23 10:28S 33°52' E 018°27'0 0.1
2017-Nov-23 09:55S 33°52' E 018°27'0 0.0
2017-Nov-23 09:28S 33°52' E 018°27'0 0.0
2017-Nov-23 08:58S 33°52' E 018°27'0 0.0
2017-Nov-23 08:25S 33°52' E 018°27'0 0.0
2017-Nov-23 07:58S 33°52' E 018°27'0 0.0
2017-Nov-23 07:28S 33°52' E 018°27'0 0.0
2017-Nov-23 06:58S 33°52' E 018°27'0 0.1
2017-Nov-23 06:25S 33°52' E 018°27'0 0.1
2017-Nov-23 05:58S 33°52' E 018°27'0 0.0
2017-Nov-23 05:25S 33°52' E 018°27'0 0.0
2017-Nov-23 04:55S 33°52' E 018°27'0 0.1
2017-Nov-23 04:28S 33°52' E 018°27'0 0.0
2017-Nov-23 03:55S 33°52' E 018°27'0 0.0
2017-Nov-23 03:28S 33°52' E 018°27'0 0.1
2017-Nov-23 02:58S 33°52' E 018°27'0 0.0
2017-Nov-23 02:28S 33°52' E 018°27'0 0.0
2017-Nov-23 01:55S 33°52' E 018°27'0 0.0
2017-Nov-23 01:28S 33°52' E 018°27'0 0.0
2017-Nov-23 00:55S 33°52' E 018°27'0 0.0
2017-Nov-23 00:28S 33°52' E 018°27'0 0.1
2017-Nov-22 23:58S 33°52' E 018°27'0 0.0
2017-Nov-22 23:28S 33°52' E 018°27'0 0.0
2017-Nov-22 22:58S 33°52' E 018°27'0 0.0
2017-Nov-22 22:25S 33°52' E 018°27'0 0.1
2017-Nov-22 21:58S 33°52' E 018°27'0 0.0
2017-Nov-22 21:28S 33°52' E 018°27'0 0.0
2017-Nov-22 20:58S 33°52' E 018°27'0 0.0
2017-Nov-22 20:28S 33°52' E 018°27'0 0.0
2017-Nov-22 19:58S 33°52' E 018°27'0 0.1
2017-Nov-22 19:19S 33°52' E 018°27'  
2017-Nov-20 00:30S 33°52' E 018°27'0 0.0
2017-Nov-20 00:00S 33°52' E 018°27'0 0.0
2017-Nov-19 23:27S 33°52' E 018°27'0 0.0
2017-Nov-19 23:00S 33°52' E 018°27'0 0.0
2017-Nov-19 22:30S 33°52' E 018°27'0 0.0
2017-Nov-19 21:57S 33°52' E 018°27'0 0.0
2017-Nov-19 21:30S 33°52' E 018°27'0 0.0
2017-Nov-19 20:54S 33°52' E 018°27'0 0.0
2017-Nov-19 20:30S 33°52' E 018°27'0 0.1
2017-Nov-19 20:00S 33°52' E 018°27'0 0.0
2017-Nov-19 19:30S 33°52' E 018°27'0 0.0
2017-Nov-19 19:00S 33°52' E 018°27'0 0.0
2017-Nov-19 18:30S 33°52' E 018°27'0 0.0
2017-Nov-19 17:57S 33°52' E 018°27'0 0.0
2017-Nov-19 17:30S 33°52' E 018°27'0 0.0
2017-Nov-19 17:00S 33°52' E 018°27'0 0.0
2017-Nov-19 16:30S 33°52' E 018°27'0 0.0
2017-Nov-19 15:54S 33°52' E 018°27'0 0.1
2017-Nov-19 15:30S 33°52' E 018°27'0 0.1
2017-Nov-19 15:00S 33°52' E 018°27'0 0.0
2017-Nov-19 14:30S 33°52' E 018°27'0 0.1
2017-Nov-19 14:00S 33°52' E 018°27'0 0.1
2017-Nov-19 13:30S 33°52' E 018°27'0 0.0
2017-Nov-19 13:00S 33°52' E 018°27'0 0.1
2017-Nov-19 12:30S 33°52' E 018°27'0 0.0
2017-Nov-19 11:57S 33°52' E 018°27'0 0.0
2017-Nov-19 11:27S 33°52' E 018°27'0 0.1
2017-Nov-19 11:00S 33°52' E 018°27'0 0.1
2017-Nov-19 10:30S 33°52' E 018°27'0 0.0
2017-Nov-19 10:00S 33°52' E 018°27'0 0.0
2017-Nov-19 09:30S 33°52' E 018°27'0 0.0
2017-Nov-19 08:54S 33°52' E 018°27'0 0.0
2017-Nov-19 08:30S 33°52' E 018°27'0 0.0
2017-Nov-19 07:54S 33°52' E 018°27'0 0.0
2017-Nov-19 07:30S 33°52' E 018°27'0 0.0
2017-Nov-19 07:00S 33°52' E 018°27'0 0.0
2017-Nov-19 06:30S 33°52' E 018°27'0 0.0
2017-Nov-19 06:00S 33°52' E 018°27'0 0.0
2017-Nov-19 05:30S 33°52' E 018°27'0 0.0
2017-Nov-19 05:00S 33°52' E 018°27'0 0.0
2017-Nov-19 04:24S 33°52' E 018°27'0 0.0
2017-Nov-19 04:00S 33°52' E 018°27'0 0.0
2017-Nov-19 03:30S 33°52' E 018°27'0 0.0
2017-Nov-19 03:00S 33°52' E 018°27'0 0.0
2017-Nov-19 02:30S 33°52' E 018°27'0 0.0
2017-Nov-19 02:00S 33°52' E 018°27'0 0.0
2017-Nov-19 01:30S 33°52' E 018°27'0 0.0
2017-Nov-19 01:00S 33°52' E 018°27'0 0.0
2017-Nov-19 00:30S 33°52' E 018°27'0 0.0
2017-Nov-19 00:00S 33°52' E 018°27'0 0.0
2017-Nov-18 23:30S 33°52' E 018°27'0 0.0
2017-Nov-18 23:00S 33°52' E 018°27'0 0.0
2017-Nov-18 22:30S 33°52' E 018°27'0 0.0
2017-Nov-18 22:00S 33°52' E 018°27'0 0.0
2017-Nov-18 21:27S 33°52' E 018°27'0 0.0
2017-Nov-18 21:00S 33°52' E 018°27'0 0.0
2017-Nov-18 20:27S 33°52' E 018°27'0 0.0
2017-Nov-18 20:00S 33°52' E 018°27'0 0.0
2017-Nov-18 19:30S 33°52' E 018°27'0 0.0
2017-Nov-18 19:00S 33°52' E 018°27'0 0.0
2017-Nov-18 18:30S 33°52' E 018°27'0 0.0
2017-Nov-18 18:00S 33°52' E 018°27'0 0.0
2017-Nov-18 17:30S 33°52' E 018°27'0 0.0
2017-Nov-18 16:57S 33°52' E 018°27'0 0.0
2017-Nov-18 16:30S 33°52' E 018°27'0 0.0
2017-Nov-18 15:51S 33°52' E 018°27'0 0.0
2017-Nov-18 15:30S 33°52' E 018°27'0 0.0
2017-Nov-18 15:00S 33°52' E 018°27'0 0.1
2017-Nov-18 14:27S 33°52' E 018°27'0 0.1
2017-Nov-18 14:00S 33°52' E 018°27'0 0.0
2017-Nov-18 13:30S 33°52' E 018°27'0 0.0
2017-Nov-18 13:00S 33°52' E 018°27'0 0.0
2017-Nov-18 12:30S 33°52' E 018°27'0 0.0
2017-Nov-18 11:57S 33°52' E 018°27'0 0.0
2017-Nov-18 11:30S 33°52' E 018°27'0 0.0
2017-Nov-18 11:00S 33°52' E 018°27'0 0.0
2017-Nov-18 10:30S 33°52' E 018°27'0 0.0
2017-Nov-18 10:00S 33°52' E 018°27'0 0.0
2017-Nov-18 09:21S 33°52' E 018°27'0 0.0
2017-Nov-18 09:00S 33°52' E 018°27'0 0.1
2017-Nov-18 08:27S 33°52' E 018°27'0 0.1
2017-Nov-18 08:00S 33°52' E 018°27'0 0.0
2017-Nov-18 07:30S 33°52' E 018°27'0 0.0
2017-Nov-18 07:00S 33°52' E 018°27'0 0.0
2017-Nov-18 06:30S 33°52' E 018°27'0 0.0
2017-Nov-18 05:54S 33°52' E 018°27'0 0.1
2017-Nov-18 05:30S 33°52' E 018°27'0 0.0
2017-Nov-18 05:00S 33°52' E 018°27'0 0.0
2017-Nov-18 04:30S 33°52' E 018°27'0 0.0
2017-Nov-18 03:59S 33°52' E 018°27'0 0.0
2017-Nov-18 03:29S 33°52' E 018°27'0 0.0
2017-Nov-18 02:59S 33°52' E 018°27'0 0.0
2017-Nov-18 02:29S 33°52' E 018°27'0 0.1
2017-Nov-18 01:59S 33°52' E 018°27'0 0.1
2017-Nov-18 01:26S 33°52' E 018°27'0 0.1
2017-Nov-18 00:59S 33°52' E 018°27'0 0.1
2017-Nov-18 00:11S 33°52' E 018°26'0 0.1
2017-Nov-17 23:59S 33°52' E 018°27'0 0.2
2017-Nov-17 23:26S 33°52' E 018°27'0 0.2
2017-Nov-17 22:59S 33°52' E 018°27'0 0.2
2017-Nov-17 22:26S 33°52' E 018°27'0 0.0
2017-Nov-17 21:53S 33°52' E 018°27'0 0.1
2017-Nov-17 21:29S 33°52' E 018°27'0 0.1
2017-Nov-17 20:59S 33°52' E 018°27'0 0.0
2017-Nov-17 20:29S 33°52' E 018°27'0 0.0
2017-Nov-17 19:59S 33°52' E 018°27'0 0.1
2017-Nov-17 19:29S 33°52' E 018°27'0 0.1
2017-Nov-17 18:53S 33°52' E 018°27'0 0.0
2017-Nov-17 18:29S 33°52' E 018°27'0 0.0
2017-Nov-17 17:59S 33°52' E 018°27'0 0.0
2017-Nov-17 17:29S 33°52' E 018°27'0 0.1
2017-Nov-17 16:59S 33°52' E 018°27'0 0.0
2017-Nov-17 16:23S 33°52' E 018°27'0 0.0
2017-Nov-17 15:59S 33°52' E 018°27'0 0.1
2017-Nov-17 15:29S 33°52' E 018°27'0 0.1
2017-Nov-17 14:59S 33°52' E 018°27'  

Dump ship's entire track history